Time;durP1;ratioP1;P1;durP2;ratioP2;P2;SDS_P1;SDS_P2;PMS_P1;PMS_P2;Temp;Humidity;BMP_temperature;BMP_pressure;BME280_temperature;BME280_humidity;BME280_pressure;Samples;Min_cycle;Max_cycle;Signal;HPM_P1;HPM_P2
2021/03/28 00:02:11;;;;;;;;;;;4.90;99.90;;;;;;5011834;28;20408;-89
2021/03/28 00:04:44;;;;;;;;;;;4.80;99.90;;;;;;5022040;28;19961;-89
2021/03/28 00:07:17;;;;;;;9.70;3.28;;;4.70;99.90;;;;;;5006035;28;20235;-88
2021/03/28 00:09:48;;;;;;;15.93;4.05;;;4.60;99.90;;;;;;5003715;28;20161;-89
2021/03/28 00:12:35;;;;;;;9.18;2.97;;;4.70;99.90;;;;;;5004310;28;20660;-88
2021/03/28 00:15:10;;;;;;;7.25;3.72;;;4.70;99.90;;;;;;5007916;28;20433;-88
2021/03/28 00:17:50;;;;;;;8.43;3.05;;;4.70;99.90;;;;;;5006805;28;20129;-89
2021/03/28 00:20:17;;;;;;;10.10;3.20;;;4.70;99.90;;;;;;5016648;28;20403;-89
2021/03/28 00:23:01;;;;;;;12.85;3.30;;;4.60;99.90;;;;;;5002297;28;20054;-89
2021/03/28 00:26:01;;;;;;;11.60;3.40;;;4.50;99.90;;;;;;5018316;28;20418;-88
2021/03/28 00:28:37;;;;;;;6.68;3.00;;;4.40;99.90;;;;;;5005607;28;20401;-87
2021/03/28 00:31:21;;;;;;;9.93;3.53;;;4.40;99.90;;;;;;4996508;28;20057;-88
2021/03/28 00:34:06;;;;;;;9.98;3.90;;;4.30;99.90;;;;;;5013924;28;20081;-86
2021/03/28 00:36:53;;;;;;;12.45;3.35;;;4.30;99.90;;;;;;5001005;28;20042;-88
2021/03/28 00:39:40;;;;;;;11.13;4.50;;;4.30;99.90;;;;;;5029805;28;20081;-89
2021/03/28 00:42:35;;;;;;;9.00;3.60;;;4.30;99.90;;;;;;5018072;28;20124;-88
2021/03/28 00:45:28;;;;;;;15.32;4.82;;;4.20;99.90;;;;;;5003456;28;20065;-88
2021/03/28 00:48:17;;;;;;;10.55;4.85;;;4.20;99.90;;;;;;4998939;28;20058;-87
2021/03/28 00:51:00;;;;;;;17.42;4.43;;;4.10;99.90;;;;;;4998971;28;20054;-87
2021/03/28 00:53:44;;;;;;;10.55;3.92;;;4.10;99.90;;;;;;4999634;28;20478;-86
2021/03/28 00:56:19;;;;;;;11.90;4.00;;;4.10;99.90;;;;;;5000465;28;20081;-87
2021/03/28 00:59:21;;;;;;;6.63;3.35;;;4.10;99.90;;;;;;5000165;28;20069;-87
2021/03/28 01:02:19;;;;;;;8.25;3.75;;;4.10;99.90;;;;;;4927263;29;20178;-89
2021/03/28 01:04:51;;;;;;;13.25;3.75;;;4.10;99.90;;;;;;4995786;28;20403;-86
2021/03/28 01:07:32;;;;;;;11.60;3.85;;;4.10;99.90;;;;;;5030204;28;20061;-87
2021/03/28 01:10:49;;;;;;;11.73;3.78;;;4.10;99.90;;;;;;5022808;28;20127;-90
2021/03/28 01:13:52;;;;;;;11.90;3.55;;;4.10;99.90;;;;;;5014572;28;20056;-88
2021/03/28 01:16:55;;;;;;;11.32;4.03;;;4.10;99.90;;;;;;5021507;28;20058;-88
2021/03/28 01:19:54;;;;;;;10.35;3.30;;;4.10;99.90;;;;;;5006253;28;20061;-87
2021/03/28 01:22:35;;;;;;;8.65;3.80;;;4.10;99.90;;;;;;5005085;28;20049;-87
2021/03/28 01:25:17;;;;;;;8.13;3.78;;;4.20;99.90;;;;;;5001343;28;20046;-89
2021/03/28 01:28:04;;;;;;;11.73;3.47;;;4.10;99.90;;;;;;5004276;28;20081;-88
2021/03/28 01:31:13;;;;;;;10.40;3.53;;;4.10;99.90;;;;;;5020496;28;20049;-87
2021/03/28 01:33:49;;;;;;;7.32;3.25;;;4.00;99.90;;;;;;4975921;28;20076;-87
2021/03/28 01:36:28;;;;;;;6.82;2.85;;;4.00;99.90;;;;;;5016660;28;20045;-86
2021/03/28 01:39:06;;;;;;;8.73;3.55;;;3.90;99.90;;;;;;5024626;28;20416;-89
2021/03/28 01:41:43;;;;;;;9.90;3.40;;;3.90;99.90;;;;;;5017700;28;20123;-88
2021/03/28 01:44:16;;;;;;;13.60;3.50;;;3.80;99.90;;;;;;4998420;28;20057;-89
2021/03/28 01:47:00;;;;;;;15.23;4.10;;;3.80;99.90;;;;;;4996226;28;20062;-87
2021/03/28 01:50:11;;;;;;;8.43;3.22;;;3.80;99.90;;;;;;5008759;28;20049;-89
2021/03/28 01:52:59;;;;;;;7.32;3.47;;;3.70;99.90;;;;;;5007982;28;20072;-88
2021/03/28 01:55:28;;;;;;;9.23;3.60;;;3.70;99.90;;;;;;5013436;28;20108;-88
2021/03/28 01:58:07;;;;;;;6.78;3.10;;;3.60;99.90;;;;;;5015458;28;20078;-88
2021/03/28 02:00:45;;;;;;;7.50;3.45;;;3.60;99.90;;;;;;5012240;28;20068;-89
2021/03/28 02:03:24;;;;;;;11.77;3.50;;;3.60;99.90;;;;;;4993818;28;20084;-89
2021/03/28 02:05:58;;;;;;;12.90;3.38;;;3.60;99.90;;;;;;5001385;28;20054;-89
2021/03/28 02:08:54;;;;;;;9.30;3.03;;;3.50;99.90;;;;;;5005204;28;20124;-89
2021/03/28 02:11:28;;;;;;;11.40;3.95;;;3.50;99.90;;;;;;5000296;28;20037;-89
2021/03/28 02:14:34;;;;;;;8.48;3.00;;;3.40;99.90;;;;;;5030710;28;20061;-88
2021/03/28 02:17:28;;;;;;;10.15;3.47;;;3.50;99.90;;;;;;5011349;28;20107;-89
2021/03/28 02:20:22;;;;;;;9.95;3.47;;;3.50;99.90;;;;;;5025239;28;20156;-88
2021/03/28 02:22:59;;;;;;;11.00;3.25;;;3.50;99.90;;;;;;5028186;28;20053;-89
2021/03/28 02:25:41;;;;;;;10.48;3.75;;;3.60;99.90;;;;;;5008363;28;20060;-88
2021/03/28 02:28:07;;;;;;;9.27;3.13;;;3.70;99.90;;;;;;5028730;28;20050;-86
2021/03/28 02:31:00;;;;;;;11.38;3.10;;;3.70;99.90;;;;;;5034137;28;20042;-88
2021/03/28 02:33:47;;;;;;;8.43;3.00;;;3.80;99.90;;;;;;5024107;28;20393;-87
2021/03/28 02:36:35;;;;;;;7.18;2.83;;;3.90;99.90;;;;;;4990098;28;20166;-90
2021/03/28 02:39:12;;;;;;;8.35;3.00;;;3.90;99.90;;;;;;5014673;28;20054;-86
2021/03/28 02:41:44;;;;;;;7.63;2.70;;;3.80;99.90;;;;;;5017245;28;20046;-87
2021/03/28 02:44:31;;;;;;;;;;;3.80;99.90;;;;;;5014068;28;20161;-88
2021/03/28 02:47:03;;;;;;;12.00;3.10;;;3.90;99.90;;;;;;5017518;28;19968;-87
2021/03/28 02:49:35;;;;;;;;;;;3.90;99.90;;;;;;5028409;28;20061;-85
2021/03/28 02:52:05;;;;;;;7.72;2.65;;;3.90;99.90;;;;;;5015873;28;19909;-89
2021/03/28 02:54:51;;;;;;;14.07;3.35;;;3.80;99.90;;;;;;5011835;28;20048;-88
2021/03/28 02:58:08;;;;;;;10.07;3.72;;;3.70;99.90;;;;;;5019591;28;20054;-88
2021/03/28 03:00:56;;;;;;;6.20;2.83;;;3.60;99.90;;;;;;4900905;29;20172;-88
2021/03/28 03:03:45;;;;;;;9.80;2.92;;;3.60;99.90;;;;;;4903780;29;20079;-88
2021/03/28 03:06:18;;;;;;;11.05;3.60;;;3.50;99.90;;;;;;4984200;28;20064;-88
2021/03/28 03:09:19;;;;;;;8.38;2.88;;;3.50;99.90;;;;;;4997429;28;20080;-89
2021/03/28 03:12:13;;;;;;;11.10;3.47;;;3.60;99.90;;;;;;5013231;28;20057;-86
2021/03/28 03:14:48;;;;;;;11.68;2.90;;;3.50;99.90;;;;;;5013840;28;20058;-86
2021/03/28 03:17:54;;;;;;;6.10;2.88;;;3.50;99.90;;;;;;5015566;28;20045;-86
2021/03/28 03:20:42;;;;;;;11.07;3.08;;;3.50;99.90;;;;;;5018067;28;20062;-89
2021/03/28 03:23:49;;;;;;;9.38;3.00;;;3.50;99.90;;;;;;5021364;28;20097;-88
2021/03/28 03:26:45;;;;;;;10.70;3.22;;;3.50;99.90;;;;;;5014788;28;20122;-88
2021/03/28 03:29:21;;;;;;;5.43;3.05;;;3.50;99.90;;;;;;5023553;28;20132;-88
2021/03/28 03:32:00;;;;;;;10.57;3.53;;;3.50;99.90;;;;;;5003506;28;20190;-88
2021/03/28 03:34:45;;;;;;;8.60;3.25;;;3.50;99.90;;;;;;5010337;28;20053;-86
2021/03/28 03:37:42;;;;;;;9.75;3.10;;;3.40;99.90;;;;;;5008832;28;20085;-88
2021/03/28 03:40:36;;;;;;;11.52;2.83;;;3.30;99.90;;;;;;5004038;28;20042;-87
2021/03/28 03:43:28;;;;;;;10.68;3.13;;;3.20;99.90;;;;;;5036186;28;20072;-88
2021/03/28 03:46:28;;;;;;;11.52;3.22;;;3.20;99.90;;;;;;5015939;28;20050;-89
2021/03/28 03:49:18;;;;;;;8.45;2.80;;;3.20;99.90;;;;;;5023912;28;20117;-88
2021/03/28 03:51:53;;;;;;;12.05;3.47;;;3.10;99.90;;;;;;5026926;28;20119;-86
2021/03/28 03:54:42;;;;;;;9.60;3.10;;;3.10;99.90;;;;;;5031640;28;20129;-88
2021/03/28 03:57:12;;;;;;;6.50;2.72;;;3.10;99.90;;;;;;5013198;28;20054;-89
2021/03/28 03:59:44;;;;;;;10.73;3.25;;;3.10;99.90;;;;;;5034952;28;20038;-87
2021/03/28 04:02:48;;;;;;;14.32;3.25;;;3.10;99.90;;;;;;5017894;28;20045;-90
2021/03/28 04:05:32;;;;;;;11.13;2.70;;;3.00;99.90;;;;;;5017448;28;20053;-88
2021/03/28 04:08:11;;;;;;;9.80;3.47;;;2.80;99.90;;;;;;5031858;28;20109;-89
2021/03/28 04:11:15;;;;;;;13.02;3.00;;;2.60;99.90;;;;;;5016671;28;20046;-87
2021/03/28 04:14:05;;;;;;;6.55;2.85;;;2.50;99.90;;;;;;4983614;28;20046;-87
2021/03/28 04:16:47;;;;;;;9.43;3.25;;;2.50;99.90;;;;;;5008376;28;20053;-85
2021/03/28 04:19:29;;;;;;;10.75;2.83;;;2.50;99.90;;;;;;5026521;28;20054;-87
2021/03/28 04:22:27;;;;;;;9.82;3.15;;;2.50;99.90;;;;;;5008723;28;20104;-88
2021/03/28 04:25:13;;;;;;;9.55;3.20;;;2.50;99.90;;;;;;5021326;28;20451;-89
2021/03/28 04:27:59;;;;;;;11.35;2.95;;;2.50;99.90;;;;;;5004001;28;20079;-88
2021/03/28 04:30:50;;;;;;;8.80;3.35;;;2.40;99.90;;;;;;5017871;28;20063;-88
2021/03/28 04:33:39;;;;;;;8.18;2.70;;;2.20;99.90;;;;;;5029212;28;20080;-88
2021/03/28 04:36:24;;;;;;;6.22;3.15;;;2.00;99.90;;;;;;5023776;28;20058;-89
2021/03/28 04:38:55;;;;;;;18.27;3.42;;;1.90;99.90;;;;;;5019484;28;20049;-88
2021/03/28 04:41:37;;;;;;;9.90;3.35;;;1.90;99.90;;;;;;5042142;28;20876;-88
2021/03/28 04:44:32;;;;;;;8.80;3.42;;;2.00;99.90;;;;;;5032717;28;20174;-87
2021/03/28 04:47:18;;;;;;;9.18;3.50;;;2.10;99.90;;;;;;5015004;28;20034;-87
2021/03/28 04:50:00;;;;;;;14.13;3.70;;;2.10;99.90;;;;;;5021577;28;20057;-88
2021/03/28 04:52:48;;;;;;;8.18;3.13;;;1.90;99.90;;;;;;5016957;28;20118;-88
2021/03/28 04:55:18;;;;;;;8.85;2.83;;;1.80;99.90;;;;;;5023201;28;20064;-86
2021/03/28 04:58:33;;;;;;;9.23;2.97;;;1.70;99.90;;;;;;5032162;28;20124;-88
2021/03/28 05:01:26;;;;;;;12.93;3.20;;;1.60;99.90;;;;;;4960242;29;20032;-90
2021/03/28 05:04:08;;;;;;;10.18;3.00;;;1.40;99.90;;;;;;5007325;28;20049;-86
2021/03/28 05:06:59;;;;;;;9.45;3.80;;;1.30;99.90;;;;;;5026631;28;20075;-87
2021/03/28 05:09:47;;;;;;;7.68;3.08;;;1.20;99.90;;;;;;5039360;28;20053;-87
2021/03/28 05:12:34;;;;;;;12.93;3.28;;;1.10;99.90;;;;;;5024037;28;20107;-86
2021/03/28 05:15:14;;;;;;;10.07;3.03;;;1.00;99.90;;;;;;5038441;28;20466;-87
2021/03/28 05:18:07;;;;;;;12.98;4.05;;;1.00;99.90;;;;;;5016114;28;20160;-87
2021/03/28 05:20:49;;;;;;;8.32;3.50;;;0.90;99.90;;;;;;5024283;28;20124;-88
2021/03/28 05:23:41;;;;;;;8.48;3.38;;;0.90;99.90;;;;;;5014332;28;20443;-87
2021/03/28 05:26:22;;;;;;;12.18;3.33;;;0.90;99.90;;;;;;4977311;28;20126;-86
2021/03/28 05:29:14;;;;;;;7.43;3.17;;;0.90;99.90;;;;;;5031938;28;20045;-86
2021/03/28 05:32:02;;;;;;;12.38;3.58;;;0.80;99.90;;;;;;5016125;28;20057;-85
2021/03/28 05:34:51;;;;;;;14.30;3.83;;;0.90;99.90;;;;;;5013468;28;20105;-86
2021/03/28 05:37:40;;;;;;;10.38;3.53;;;0.90;99.90;;;;;;5028176;28;20073;-87
2021/03/28 05:40:31;;;;;;;12.57;3.55;;;0.80;99.90;;;;;;5031213;28;20081;-87
2021/03/28 05:43:10;;;;;;;9.20;3.38;;;0.90;99.90;;;;;;5030196;28;20052;-87
2021/03/28 05:46:13;;;;;;;10.30;3.50;;;1.00;99.90;;;;;;5033255;28;20041;-87
2021/03/28 05:48:42;;;;;;;9.95;3.38;;;1.10;99.90;;;;;;5025558;28;20090;-87
2021/03/28 05:51:46;;;;;;;13.25;3.95;;;1.20;99.90;;;;;;5036887;28;20056;-88
2021/03/28 05:54:55;;;;;;;13.68;3.80;;;1.40;99.90;;;;;;5032372;28;20045;-87
2021/03/28 05:57:33;;;;;;;10.82;3.97;;;1.60;99.90;;;;;;5005373;28;20046;-86
2021/03/28 06:00:38;;;;;;;12.23;3.10;;;1.70;99.90;;;;;;5007720;28;20081;-86
2021/03/28 06:03:21;;;;;;;7.80;3.50;;;1.70;99.90;;;;;;5024325;28;20076;-82
2021/03/28 06:06:20;;;;;;;13.02;3.67;;;1.70;99.90;;;;;;5011998;28;20121;-84
2021/03/28 06:09:21;;;;;;;11.02;3.70;;;1.70;99.90;;;;;;5010465;28;20053;-86
2021/03/28 06:12:09;;;;;;;5.40;2.92;;;1.70;99.90;;;;;;5016476;28;20042;-86
2021/03/28 06:14:52;;;;;;;10.75;3.22;;;1.80;99.90;;;;;;5002585;28;20046;-85
2021/03/28 06:17:25;;;;;;;10.25;3.88;;;1.90;99.90;;;;;;5011783;28;20041;-86
2021/03/28 06:20:09;;;;;;;;;;;2.00;99.90;;;;;;5004122;28;20049;-86
2021/03/28 06:23:06;;;;;;;11.98;4.80;;;2.20;99.90;;;;;;5023621;28;19930;-81
2021/03/28 06:26:09;;;;;;;9.50;3.30;;;2.50;99.90;;;;;;5014177;28;20144;-81
2021/03/28 06:29:27;;;;;;;9.63;3.60;;;2.80;99.90;;;;;;5005125;28;20150;-85
2021/03/28 06:32:37;;;;;;;15.85;4.38;;;3.10;99.90;;;;;;5004654;28;20115;-86
2021/03/28 06:35:30;;;;;;;12.35;3.63;;;3.50;99.90;;;;;;5016352;28;20042;-90
2021/03/28 06:38:17;;;;;;;10.45;3.38;;;3.90;99.90;;;;;;5015031;28;20162;-88
2021/03/28 06:40:54;;;;;;;11.00;3.75;;;4.30;99.90;;;;;;5033101;28;20042;-90
2021/03/28 06:43:41;;;;;;;10.60;3.83;;;4.60;99.90;;;;;;5013109;28;20042;-89
2021/03/28 06:46:42;;;;;;;10.88;3.70;;;4.80;99.90;;;;;;5040245;28;20044;-89
2021/03/28 06:49:46;;;;;;;10.95;3.05;;;5.10;99.90;;;;;;5028870;28;20119;-88
2021/03/28 06:52:40;;;;;;;8.25;3.40;;;5.50;99.90;;;;;;5032099;28;20104;-90
2021/03/28 06:55:47;;;;;;;7.88;2.95;;;6.00;99.90;;;;;;5018995;28;20077;-89
2021/03/28 06:59:10;;;;;;;11.70;3.15;;;6.30;99.90;;;;;;5016988;28;20046;-91
2021/03/28 07:01:50;;;;;;;8.30;2.60;;;6.60;99.90;;;;;;4998151;28;20086;-89
2021/03/28 07:04:55;;;;;;;9.63;3.15;;;6.90;97.40;;;;;;5002473;28;20041;-90
2021/03/28 07:07:50;;;;;;;6.90;2.58;;;7.10;96.50;;;;;;5055744;28;20057;-90
2021/03/28 07:10:26;;;;;;;7.63;3.15;;;7.50;93.10;;;;;;5041446;28;20064;-90
2021/03/28 07:13:36;;;;;;;8.23;2.47;;;7.70;92.50;;;;;;5037421;28;20075;-91
2021/03/28 07:16:34;;;;;;;8.18;2.20;;;7.90;89.60;;;;;;5033334;28;20042;-89
2021/03/28 07:19:24;;;;;;;6.20;2.22;;;7.70;85.40;;;;;;5020223;28;20065;-89
2021/03/28 07:22:11;;;;;;;5.47;2.55;;;7.60;88.00;;;;;;4999460;28;20061;-91
2021/03/28 07:25:08;;;;;;;11.25;2.47;;;7.60;89.40;;;;;;5010735;28;20078;-91
2021/03/28 07:28:04;;;;;;;9.25;2.78;;;7.60;89.10;;;;;;4999545;28;20047;-91
2021/03/28 07:31:03;;;;;;;9.20;2.58;;;7.70;90.20;;;;;;5160268;23;20054;-90
2021/03/28 07:34:07;;;;;;;11.55;2.88;;;7.90;85.00;;;;;;5151776;22;20042;-90
2021/03/28 07:36:46;;;;;;;5.45;2.00;;;8.20;83.50;;;;;;5029675;28;20038;-90
2021/03/28 07:39:27;;;;;;;7.53;2.20;;;8.50;81.70;;;;;;5043009;28;20048;-90
2021/03/28 07:42:34;;;;;;;9.00;2.42;;;8.70;80.10;;;;;;5444900;22;20053;-90
2021/03/28 07:45:26;;;;;;;12.90;2.33;;;8.80;76.40;;;;;;5055074;28;20064;-89
2021/03/28 07:48:21;;;;;;;6.78;2.47;;;8.60;75.40;;;;;;5027094;28;20049;-89
2021/03/28 07:51:54;;;;;;;7.78;1.95;;;8.60;77.10;;;;;;5038905;28;20072;-90
2021/03/28 07:55:03;;;;;;;9.45;3.47;;;8.90;75.70;;;;;;5063398;28;20068;-91
2021/03/28 07:57:55;;;;;;;9.68;2.33;;;9.10;75.60;;;;;;5068853;28;20045;-89
2021/03/28 08:01:05;;;;;;;;;;;;;;;;;;;;;
2021/03/28 08:04:05;;;;;;;8.85;2.47;;;9.70;73.60;;;;;;5067903;28;20052;-88
2021/03/28 08:06:43;;;;;;;8.25;2.38;;;10.10;71.00;;;;;;5056291;28;20060;-88
2021/03/28 08:09:33;;;;;;;8.52;2.95;;;10.20;69.70;;;;;;5308076;22;20369;-85
2021/03/28 08:12:31;;;;;;;4.13;2.00;;;10.20;67.20;;;;;;5023585;28;20094;-89
2021/03/28 08:15:40;;;;;;;7.55;2.30;;;9.90;68.60;;;;;;5034665;28;20405;-90
2021/03/28 08:18:35;;;;;;;7.63;2.30;;;9.90;69.00;;;;;;5033737;28;20046;-88
2021/03/28 08:21:22;;;;;;;6.85;2.38;;;10.20;68.80;;;;;;5323644;23;20189;-90
2021/03/28 08:24:22;;;;;;;8.48;3.28;;;10.20;67.50;;;;;;5039614;28;20105;-90
2021/03/28 08:27:37;;;;;;;6.68;2.10;;;10.40;67.00;;;;;;5022594;28;20121;-90
2021/03/28 08:30:23;;;;;;;7.10;2.15;;;10.90;66.30;;;;;;5033767;28;20076;-91
2021/03/28 08:33:18;;;;;;;11.35;2.70;;;11.20;64.20;;;;;;5030194;28;20050;-90
2021/03/28 08:36:21;;;;;;;10.98;2.53;;;11.50;63.80;;;;;;5024940;28;20050;-90
2021/03/28 08:39:23;;;;;;;9.77;2.55;;;12.50;62.70;;;;;;5026903;28;20050;-90
2021/03/28 08:42:21;;;;;;;8.93;2.53;;;13.30;57.50;;;;;;5030682;28;20121;-90
2021/03/28 08:45:09;;;;;;;9.48;2.15;;;13.80;55.60;;;;;;5030890;28;20046;-90
2021/03/28 08:48:17;;;;;;;5.30;1.90;;;14.00;55.10;;;;;;5030244;28;20414;-89
2021/03/28 08:51:23;;;;;;;9.35;2.45;;;14.20;54.10;;;;;;5113448;23;20063;-88
2021/03/28 08:54:25;;;;;;;6.88;1.92;;;14.20;52.90;;;;;;5031334;28;20035;-89
2021/03/28 08:57:06;;;;;;;9.48;2.22;;;14.50;52.30;;;;;;5026951;28;20048;-89
2021/03/28 08:59:52;;;;;;;7.10;1.98;;;14.80;52.50;;;;;;5063246;23;20054;-91
2021/03/28 09:02:50;;;;;;;9.60;2.35;;;15.60;51.40;;;;;;5032745;28;20068;-89
2021/03/28 09:05:52;;;;;;;9.50;2.20;;;16.00;49.20;;;;;;5025941;28;20050;-88
2021/03/28 09:08:37;;;;;;;9.98;2.58;;;15.70;49.20;;;;;;5026561;28;20054;-90
2021/03/28 09:11:43;;;;;;;8.70;2.10;;;15.30;50.70;;;;;;5028068;28;20077;-88
2021/03/28 09:14:12;;;;;;;;;;;15.60;50.50;;;;;;5028733;28;20046;-89
2021/03/28 09:17:09;;;;;;;7.67;2.20;;;15.80;49.60;;;;;;5028157;28;19921;-88
2021/03/28 09:19:48;;;;;;;8.68;2.22;;;16.10;47.80;;;;;;5029056;28;20054;-90
2021/03/28 09:22:27;;;;;;;7.68;1.67;;;15.60;48.70;;;;;;5027604;28;20050;-91
2021/03/28 09:25:14;;;;;;;8.10;2.08;;;16.10;46.90;;;;;;5027244;28;20077;-90
2021/03/28 09:28:18;;;;;;;6.65;2.17;;;16.70;47.80;;;;;;5033556;28;20077;-90
2021/03/28 09:31:11;;;;;;;5.20;1.75;;;16.50;45.10;;;;;;5026202;28;20053;-90
2021/03/28 09:34:01;;;;;;;6.40;2.03;;;16.80;45.50;;;;;;5024420;28;20125;-90
2021/03/28 09:36:35;;;;;;;7.45;2.00;;;17.20;44.50;;;;;;5024868;28;20137;-89
2021/03/28 09:39:39;;;;;;;5.95;1.90;;;16.90;43.00;;;;;;5025877;28;20080;-90
2021/03/28 09:42:20;;;;;;;7.47;2.00;;;16.10;44.30;;;;;;5024682;28;20081;-89
2021/03/28 09:45:24;;;;;;;9.75;2.15;;;15.90;44.10;;;;;;5024403;28;20125;-88
2021/03/28 09:48:12;;;;;;;5.10;1.70;;;15.80;44.30;;;;;;5029428;28;20117;-89
2021/03/28 09:51:08;;;;;;;5.03;1.70;;;15.80;43.70;;;;;;5027213;28;20057;-90
2021/03/28 09:53:59;;;;;;;6.93;1.80;;;15.70;43.70;;;;;;5030739;28;20045;-89
2021/03/28 09:57:08;;;;;;;5.55;2.00;;;16.30;41.60;;;;;;5038770;28;20097;-87
2021/03/28 09:59:41;;;;;;;6.32;2.03;;;16.40;41.30;;;;;;5029934;28;20061;-86
2021/03/28 10:02:19;;;;;;;10.85;2.25;;;16.30;41.50;;;;;;5025169;28;20064;-88
2021/03/28 10:05:05;;;;;;;4.30;1.63;;;16.00;41.40;;;;;;5024075;28;20395;-87
2021/03/28 10:07:46;;;;;;;4.32;1.95;;;15.70;41.90;;;;;;5027663;28;20060;-89
2021/03/28 10:10:30;;;;;;;5.15;1.92;;;15.60;40.70;;;;;;5023402;28;20068;-88
2021/03/28 10:13:06;;;;;;;8.30;2.25;;;15.70;42.90;;;;;;5027267;28;20113;-89
2021/03/28 10:15:49;;;;;;;7.80;2.03;;;15.60;43.70;;;;;;5026159;28;20046;-88
2021/03/28 10:18:39;;;;;;;3.75;1.63;;;15.70;41.10;;;;;;5024610;28;20061;-88
2021/03/28 10:21:47;;;;;;;5.22;1.80;;;15.80;43.10;;;;;;5026314;28;20137;-89
2021/03/28 10:24:32;;;;;;;7.72;1.92;;;16.20;41.60;;;;;;5016924;28;20105;-88
2021/03/28 10:27:26;;;;;;;10.77;1.73;;;16.80;40.50;;;;;;5027479;28;20141;-87
2021/03/28 10:30:31;;;;;;;7.05;2.42;;;17.00;42.40;;;;;;5023444;28;20053;-88
2021/03/28 10:33:37;;;;;;;8.43;2.33;;;16.80;42.60;;;;;;5014319;28;20046;-88
2021/03/28 10:36:31;;;;;;;7.45;2.28;;;16.60;43.20;;;;;;5013632;28;20056;-90
2021/03/28 10:39:36;;;;;;;7.63;2.08;;;17.20;41.30;;;;;;5023631;28;20050;-88
2021/03/28 10:42:30;;;;;;;6.85;2.53;;;17.70;40.80;;;;;;5026652;28;20049;-89
2021/03/28 10:45:06;;;;;;;6.82;2.10;;;18.50;40.20;;;;;;5016704;28;20371;-88
2021/03/28 10:47:51;;;;;;;7.78;2.45;;;19.30;39.20;;;;;;5027389;28;20066;-89
2021/03/28 10:50:39;;;;;;;6.13;1.90;;;19.90;37.90;;;;;;5030925;28;20088;-89
2021/03/28 10:53:35;;;;;;;6.20;2.20;;;20.00;36.40;;;;;;5031759;28;20061;-89
2021/03/28 10:56:41;;;;;;;6.78;2.38;;;18.50;38.80;;;;;;5033245;28;20065;-88
2021/03/28 10:59:45;;;;;;;4.10;2.00;;;17.30;40.40;;;;;;5034639;28;20033;-88
2021/03/28 11:02:42;;;;;;;5.95;2.03;;;17.10;41.60;;;;;;5032845;28;20121;-89
2021/03/28 11:05:27;;;;;;;5.05;1.70;;;17.60;40.70;;;;;;5027665;28;20077;-88
2021/03/28 11:08:35;;;;;;;4.85;1.67;;;18.50;39.10;;;;;;5028917;28;20045;-88
2021/03/28 11:11:11;;;;;;;4.43;1.70;;;18.20;39.90;;;;;;5026193;28;20054;-89
2021/03/28 11:14:20;;;;;;;7.32;2.00;;;18.20;39.70;;;;;;5024792;28;20058;-89
2021/03/28 11:17:27;;;;;;;10.35;1.90;;;18.40;39.60;;;;;;5026282;28;20046;-89
2021/03/28 11:20:33;;;;;;;8.88;1.95;;;19.20;38.10;;;;;;5027006;28;20080;-89
2021/03/28 11:23:32;;;;;;;5.90;1.90;;;19.70;36.90;;;;;;5017546;28;20061;-89
2021/03/28 11:26:25;;;;;;;7.30;1.75;;;20.50;35.50;;;;;;5020261;28;20145;-90
2021/03/28 11:29:29;;;;;;;5.78;1.92;;;21.00;34.20;;;;;;5019929;28;20546;-87
2021/03/28 11:32:16;;;;;;;4.22;1.80;;;20.90;33.80;;;;;;5021740;28;20076;-88
2021/03/28 11:35:11;;;;;;;5.60;1.88;;;19.60;35.70;;;;;;5030056;28;20105;-87
2021/03/28 11:37:51;;;;;;;6.30;2.08;;;20.00;36.40;;;;;;5031447;28;20133;-87
2021/03/28 11:40:21;;;;;;;6.40;2.05;;;19.50;36.00;;;;;;5035371;28;20058;-87
2021/03/28 11:43:11;;;;;;;7.90;2.38;;;19.30;35.80;;;;;;5019080;28;20096;-88
2021/03/28 11:46:03;;;;;;;8.82;2.38;;;20.20;35.70;;;;;;5033925;28;20058;-90
2021/03/28 11:49:02;;;;;;;6.18;1.92;;;19.60;37.00;;;;;;5036268;28;20041;-89
2021/03/28 11:51:51;;;;;;;3.95;1.98;;;19.70;35.50;;;;;;5015912;28;20053;-89
2021/03/28 11:54:21;;;;;;;5.80;1.90;;;18.90;36.30;;;;;;5020267;28;20096;-88
2021/03/28 11:56:57;;;;;;;7.32;1.98;;;18.30;37.60;;;;;;5020234;28;20057;-89
2021/03/28 11:59:37;;;;;;;6.45;1.70;;;18.70;37.30;;;;;;5023822;28;20066;-89
2021/03/28 12:02:26;;;;;;;4.35;1.73;;;19.00;36.90;;;;;;5021172;28;20149;-89
2021/03/28 12:05:12;;;;;;;6.82;2.17;;;18.60;37.00;;;;;;5027167;28;20119;-87
2021/03/28 12:07:42;;;;;;;8.52;1.67;;;19.20;37.70;;;;;;5026452;28;20117;-87
2021/03/28 12:10:28;;;;;;;5.68;1.92;;;19.80;34.80;;;;;;5027145;28;20046;-88
2021/03/28 12:13:28;;;;;;;5.43;1.70;;;19.50;35.10;;;;;;5018685;28;20175;-88
2021/03/28 12:16:04;;;;;;;9.30;2.00;;;18.70;37.80;;;;;;5014348;28;20523;-90
2021/03/28 12:18:43;;;;;;;6.72;1.80;;;18.70;37.10;;;;;;5007003;28;20120;-90
2021/03/28 12:21:13;;;;;;;5.85;1.80;;;18.80;38.00;;;;;;5027383;28;20348;-90
2021/03/28 12:23:49;;;;;;;13.02;6.75;;;19.10;36.60;;;;;;5019550;28;20046;-88
2021/03/28 12:26:25;;;;;;;8.18;2.45;;;18.90;37.30;;;;;;5018548;28;20128;-89
2021/03/28 12:29:10;;;;;;;6.72;3.08;;;19.00;36.20;;;;;;5005425;28;20100;-87
2021/03/28 12:31:41;;;;;;;10.23;4.75;;;19.60;36.80;;;;;;5013907;28;20061;-90
2021/03/28 12:34:29;;;;;;;4.10;1.98;;;19.80;36.20;;;;;;5026271;28;20046;-89
2021/03/28 12:37:08;;;;;;;6.72;2.63;;;19.60;35.20;;;;;;5024772;28;20050;-89
2021/03/28 12:40:07;;;;;;;8.07;3.20;;;19.40;35.60;;;;;;5014932;28;20100;-90
2021/03/28 12:42:33;;;;;;;5.72;1.90;;;18.50;37.50;;;;;;5018280;28;20121;-88
2021/03/28 12:45:09;;;;;;;4.15;1.80;;;19.80;36.20;;;;;;5023728;28;20077;-91
2021/03/28 12:47:49;;;;;;;5.43;1.92;;;20.70;34.50;;;;;;5028772;28;20120;-90
2021/03/28 12:50:19;;;;;;;3.50;1.38;;;21.50;34.00;;;;;;5033603;28;20042;-88
2021/03/28 12:53:06;;;;;;;5.07;2.00;;;20.90;33.20;;;;;;5032728;28;20105;-87
2021/03/28 12:55:53;;;;;;;4.30;1.60;;;20.50;32.70;;;;;;5025840;28;20065;-88
2021/03/28 12:58:39;;;;;;;4.68;1.67;;;19.70;35.00;;;;;;5021914;28;20111;-86
2021/03/28 13:01:26;;;;;;;5.40;1.55;;;20.80;32.90;;;;;;5020566;28;20053;-90
2021/03/28 13:04:06;;;;;;;5.95;1.50;;;20.60;32.50;;;;;;5011477;28;20137;-89
2021/03/28 13:06:45;;;;;;;4.85;1.55;;;20.20;33.80;;;;;;5008927;28;20063;-92
2021/03/28 13:09:15;;;;;;;3.40;1.60;;;20.80;33.90;;;;;;5025527;28;20058;-89
2021/03/28 13:11:55;;;;;;;5.68;1.90;;;20.40;34.90;;;;;;5021018;28;20057;-88
2021/03/28 13:14:42;;;;;;;5.50;1.85;;;21.20;33.20;;;;;;5019986;28;20065;-89
2021/03/28 13:17:14;;;;;;;5.50;1.80;;;21.20;32.60;;;;;;5006874;28;20057;-91
2021/03/28 13:19:44;;;;;;;4.55;1.55;;;21.50;31.30;;;;;;5017743;28;20042;-87
2021/03/28 13:22:40;;;;;;;5.25;1.75;;;21.70;31.80;;;;;;5029530;28;20111;-87
2021/03/28 13:25:19;;;;;;;3.47;1.60;;;21.90;32.10;;;;;;5030770;28;20133;-87
2021/03/28 13:28:01;;;;;;;5.70;1.95;;;22.20;30.60;;;;;;5016617;28;20069;-86
2021/03/28 13:30:34;;;;;;;4.63;1.85;;;22.30;31.20;;;;;;5026186;28;20050;-86
2021/03/28 13:33:27;;;;;;;7.97;1.80;;;22.80;30.50;;;;;;5029362;28;20073;-88
2021/03/28 13:35:55;;;;;;;;;;;23.00;29.90;;;;;;5028821;28;20101;-87
2021/03/28 13:38:22;;;;;;;4.07;1.25;;;22.30;30.40;;;;;;5032380;28;19921;-87
2021/03/28 13:41:04;;;;;;;5.43;1.52;;;22.10;31.40;;;;;;5027304;28;20156;-88
2021/03/28 13:43:36;;;;;;;5.18;1.65;;;22.50;30.70;;;;;;5022256;28;20383;-87
2021/03/28 13:46:16;;;;;;;4.63;1.42;;;22.40;30.30;;;;;;5020351;28;20100;-88
2021/03/28 13:48:45;;;;;;;4.15;1.45;;;20.90;31.90;;;;;;5026506;28;20061;-88
2021/03/28 13:51:21;;;;;;;5.88;1.85;;;20.20;32.90;;;;;;5031117;28;20053;-87
2021/03/28 13:53:54;;;;;;;5.03;1.70;;;19.90;34.00;;;;;;5033130;28;20054;-87
2021/03/28 13:56:22;;;;;;;6.82;1.65;;;20.30;33.70;;;;;;5031025;28;20114;-90
2021/03/28 13:59:08;;;;;;;4.22;1.58;;;20.80;33.10;;;;;;5032895;28;20042;-88
2021/03/28 14:01:47;;;;;;;5.35;1.40;;;20.50;33.30;;;;;;5035850;28;20046;-87
2021/03/28 14:04:28;;;;;;;4.93;1.85;;;20.40;34.10;;;;;;5025406;28;20107;-87
2021/03/28 14:07:13;;;;;;;7.23;1.93;;;20.90;33.90;;;;;;5019439;28;20405;-87
2021/03/28 14:09:55;;;;;;;4.80;1.67;;;20.20;34.80;;;;;;5014240;28;20429;-90
2021/03/28 14:13:03;;;;;;;4.88;1.92;;;20.10;35.00;;;;;;5023694;28;20374;-87
2021/03/28 14:16:02;;;;;;;3.97;1.65;;;20.90;34.30;;;;;;4978920;28;20089;-92
2021/03/28 14:18:31;;;;;;;4.22;1.73;;;21.60;32.60;;;;;;4972517;28;20105;-90
2021/03/28 14:21:29;;;;;;;5.93;1.60;;;21.40;31.80;;;;;;4975100;28;20061;-88
2021/03/28 14:24:17;;;;;;;6.00;1.85;;;20.90;33.50;;;;;;4987924;28;20093;-88
2021/03/28 14:26:54;;;;;;;5.60;1.77;;;20.20;33.90;;;;;;4980051;28;20050;-90
2021/03/28 14:29:33;;;;;;;4.40;1.85;;;19.80;34.30;;;;;;4978102;28;20061;-89
2021/03/28 14:32:12;;;;;;;4.70;1.75;;;19.20;35.50;;;;;;4983603;28;20050;-90
2021/03/28 14:35:14;;;;;;;4.10;1.38;;;19.70;34.50;;;;;;4988192;28;20054;-89
2021/03/28 14:38:02;;;;;;;3.63;1.30;;;20.20;34.10;;;;;;4956245;28;20075;-89
2021/03/28 14:41:04;;;;;;;4.55;1.67;;;20.00;34.00;;;;;;4992107;28;20074;-91
2021/03/28 14:43:41;;;;;;;3.92;1.60;;;20.50;33.70;;;;;;4984630;28;20635;-91